Time;durP1;ratioP1;P1;durP2;ratioP2;P2;SDS_P1;SDS_P2;PMS_P1;PMS_P2;Temp;Humidity;BMP_temperature;BMP_pressure;BME280_temperature;BME280_humidity;BME280_pressure;Samples;Min_cycle;Max_cycle;Signal;HPM_P1;HPM_P2
2023/12/07 00:01:59;;;;;;;108.50;58.73;;;;;;;-2.95;100.00;101582.28;10420464;28;20455;-83
2023/12/07 00:07:00;;;;;;;106.87;61.20;;;;;;;-3.00;100.00;101585.06;10423080;28;20089;-83
2023/12/07 00:12:00;;;;;;;123.07;59.37;;;;;;;-3.07;100.00;101586.00;10417722;28;20442;-83
2023/12/07 00:17:01;;;;;;;123.47;62.00;;;;;;;-3.12;100.00;101577.81;10423211;28;20974;-83
2023/12/07 00:22:01;;;;;;;112.40;67.10;;;;;;;-3.10;100.00;101575.41;10416753;28;20048;-84
2023/12/07 00:27:02;;;;;;;107.37;60.37;;;;;;;-3.20;100.00;101580.22;10407207;28;20793;-84
2023/12/07 00:32:03;;;;;;;115.13;64.43;;;;;;;-3.28;100.00;101572.56;10374182;28;20060;-84
2023/12/07 00:37:03;;;;;;;101.00;61.63;;;;;;;-3.29;100.00;101568.19;10375257;28;20665;-84
2023/12/07 00:42:04;;;;;;;110.77;62.63;;;;;;;-3.28;100.00;101564.00;10377820;28;20068;-84
2023/12/07 00:47:04;;;;;;;111.73;62.13;;;;;;;-3.31;100.00;101564.53;10392671;28;20120;-84
2023/12/07 00:52:05;;;;;;;103.87;60.67;;;;;;;-3.32;100.00;101562.72;10373702;28;20377;-83
2023/12/07 00:57:06;;;;;;;112.73;64.03;;;;;;;-3.35;100.00;101572.63;10373593;28;20477;-83
2023/12/07 01:02:07;;;;;;;116.10;65.30;;;;;;;-3.34;100.00;101569.31;10378054;28;20041;-84
2023/12/07 01:07:07;;;;;;;106.70;60.33;;;;;;;-3.25;100.00;101582.28;10384139;28;20373;-84
2023/12/07 01:12:08;;;;;;;120.17;68.13;;;;;;;-3.30;100.00;101573.16;10378020;28;20045;-83
2023/12/07 01:17:08;;;;;;;122.43;67.43;;;;;;;-3.21;100.00;101580.97;10380055;28;20053;-84
2023/12/07 01:22:09;;;;;;;121.93;69.97;;;;;;;-3.16;100.00;101582.41;10412807;28;20056;-84
2023/12/07 01:27:09;;;;;;;118.60;70.00;;;;;;;-3.00;100.00;101587.63;10448408;28;20044;-83
2023/12/07 01:32:10;;;;;;;123.10;67.53;;;;;;;-3.06;100.00;101598.06;10402224;28;20048;-84
2023/12/07 01:37:10;;;;;;;118.37;62.67;;;;;;;-3.20;100.00;101593.03;10432050;28;20083;-84
2023/12/07 01:42:12;;;;;;;112.03;62.20;;;;;;;-3.25;100.00;101598.53;10396597;28;20037;-83
2023/12/07 01:47:12;;;;;;;111.57;66.82;;;;;;;-3.14;100.00;101601.41;10414168;28;20174;-83
2023/12/07 01:52:13;;;;;;;122.07;72.23;;;;;;;-3.04;100.00;101603.38;10414492;28;20477;-83
2023/12/07 01:57:13;;;;;;;134.27;73.77;;;;;;;-2.77;100.00;101604.69;10416168;28;20049;-84
2023/12/07 02:02:14;;;;;;;132.23;72.67;;;;;;;-2.53;100.00;101593.69;10420870;28;20119;-83
2023/12/07 02:07:14;;;;;;;135.27;73.07;;;;;;;-2.35;100.00;101602.53;10388660;28;20495;-84
2023/12/07 02:12:15;;;;;;;197.47;84.77;;;;;;;-2.12;100.00;101597.38;10401243;28;20052;-84
2023/12/07 02:17:33;;;;;;;221.57;96.17;;;;;;;-1.85;100.00;101601.13;10399944;28;20814;-84
2023/12/07 02:22:52;;;;;;;241.13;87.35;;;;;;;-1.87;100.00;101602.63;10445374;28;20934;-83
2023/12/07 02:27:52;;;;;;;224.75;82.57;;;;;;;-1.80;100.00;101604.22;10368014;28;20099;-83
2023/12/07 02:32:53;;;;;;;190.03;79.63;;;;;;;-1.82;100.00;101604.03;10374239;28;20385;-82
2023/12/07 02:37:53;;;;;;;228.20;85.87;;;;;;;-1.78;100.00;101605.31;10372171;28;20045;-82
2023/12/07 02:42:54;;;;;;;220.10;65.53;;;;;;;-1.69;100.00;101614.00;10379663;28;20106;-82
2023/12/07 02:47:54;;;;;;;251.00;83.13;;;;;;;-1.65;100.00;101604.97;10400160;28;20105;-81
2023/12/07 02:52:56;;;;;;;163.77;73.93;;;;;;;-1.55;100.00;101610.34;10422381;28;20052;-82
2023/12/07 02:57:57;;;;;;;199.60;74.05;;;;;;;-1.55;100.00;101607.78;10419509;28;20053;-81
2023/12/07 03:02:57;;;;;;;263.90;79.53;;;;;;;-1.58;100.00;101604.88;10427844;28;20118;-82
2023/12/07 03:07:58;;;;;;;275.20;92.30;;;;;;;-1.44;100.00;101574.63;10429935;28;21135;-81
2023/12/07 03:12:58;;;;;;;244.17;84.77;;;;;;;-1.30;100.00;101582.16;10381150;28;20095;-81
2023/12/07 03:17:59;;;;;;;189.67;76.73;;;;;;;-1.16;100.00;101593.00;10399470;28;20050;-81
2023/12/07 03:22:59;;;;;;;253.70;89.40;;;;;;;-1.11;100.00;101579.91;10386665;28;20060;-81
2023/12/07 03:28:00;;;;;;;180.57;79.87;;;;;;;-1.13;100.00;101591.69;10398508;28;20048;-82
2023/12/07 03:33:00;;;;;;;197.20;83.07;;;;;;;-1.10;100.00;101594.56;10442668;28;20051;-81
2023/12/07 03:38:01;;;;;;;203.90;71.73;;;;;;;-1.05;100.00;101595.97;10421229;28;20041;-82
2023/12/07 03:43:04;;;;;;;192.85;66.43;;;;;;;-1.13;100.00;101589.09;10420334;28;20041;-81
2023/12/07 03:48:04;;;;;;;198.20;76.63;;;;;;;-1.11;100.00;101592.75;10418599;28;20044;-82
2023/12/07 03:53:05;;;;;;;187.40;61.80;;;;;;;-1.18;100.00;101597.97;10416649;28;20049;-82
2023/12/07 03:58:05;;;;;;;161.83;57.10;;;;;;;-1.19;100.00;101593.59;10419725;28;20041;-82
2023/12/07 04:03:06;;;;;;;228.70;76.30;;;;;;;-1.23;100.00;101597.47;10425482;28;20498;-81
2023/12/07 04:08:06;;;;;;;203.70;70.70;;;;;;;-1.23;100.00;101600.03;10423347;28;20060;-81
2023/12/07 04:13:07;;;;;;;152.03;59.83;;;;;;;-1.15;100.00;101610.22;10421129;28;20400;-81
2023/12/07 04:18:07;;;;;;;147.47;54.80;;;;;;;-1.25;100.00;101616.94;10419427;28;20048;-82
2023/12/07 04:23:08;;;;;;;172.70;58.53;;;;;;;-1.27;100.00;101615.88;10421262;28;20044;-81
2023/12/07 04:28:08;;;;;;;145.27;60.63;;;;;;;-1.21;100.00;101613.97;10418601;28;20087;-81
2023/12/07 04:33:09;;;;;;;248.83;73.53;;;;;;;-1.23;100.00;101620.59;10399740;28;20084;-81
2023/12/07 04:38:09;;;;;;;155.43;57.50;;;;;;;-1.23;100.00;101625.72;10435096;28;20072;-81
2023/12/07 04:43:10;;;;;;;222.30;68.00;;;;;;;-1.22;100.00;101630.13;10418917;28;20404;-81
2023/12/07 04:48:10;;;;;;;233.00;73.50;;;;;;;-1.17;100.00;101642.56;10415055;28;20064;-81
2023/12/07 04:53:11;;;;;;;172.17;64.73;;;;;;;-1.21;100.00;101639.66;10429177;28;20039;-81
2023/12/07 04:58:11;;;;;;;216.70;72.60;;;;;;;-1.11;100.00;101630.34;10412880;28;20043;-81
2023/12/07 05:03:12;;;;;;;252.63;76.93;;;;;;;-1.13;100.00;101637.00;10420262;28;20385;-82
2023/12/07 05:08:12;;;;;;;206.40;70.53;;;;;;;-1.10;100.00;101621.91;10408697;28;20059;-82
2023/12/07 05:13:13;;;;;;;197.63;71.87;;;;;;;-0.95;100.00;101617.50;10389407;28;20040;-82
2023/12/07 05:18:13;;;;;;;212.13;80.37;;;;;;;-0.95;100.00;101620.06;10421665;28;20041;-81
2023/12/07 05:23:14;;;;;;;194.05;72.65;;;;;;;-0.93;100.00;101610.84;10424944;28;20041;-82
2023/12/07 05:28:14;;;;;;;218.87;91.67;;;;;;;-0.91;100.00;101612.81;10480252;28;20535;-84
2023/12/07 05:33:15;;;;;;;261.30;80.43;;;;;;;-0.82;100.00;101604.25;10458512;28;20078;-82
2023/12/07 05:38:16;;;;;;;198.50;61.37;;;;;;;-0.85;100.00;101599.72;10412584;28;20045;-82
2023/12/07 05:43:17;;;;;;;180.90;58.60;;;;;;;-0.84;100.00;101591.28;10441700;28;20041;-84
2023/12/07 05:48:17;;;;;;;189.20;68.47;;;;;;;-0.82;100.00;101599.13;10407754;28;20083;-83
2023/12/07 05:53:18;;;;;;;178.50;63.10;;;;;;;-0.82;100.00;101593.97;10441064;28;20132;-83
2023/12/07 05:58:18;;;;;;;216.87;70.97;;;;;;;-0.78;100.00;101589.34;10440179;28;20140;-83
2023/12/07 06:03:19;;;;;;;178.10;72.30;;;;;;;-0.70;100.00;101590.13;10454540;28;20127;-83
2023/12/07 06:08:19;;;;;;;204.90;69.57;;;;;;;-0.61;100.00;101567.03;10482701;28;20499;-82
2023/12/07 06:13:20;;;;;;;156.63;65.20;;;;;;;-0.54;100.00;101564.34;10464362;28;20131;-82
2023/12/07 06:18:20;;;;;;;219.20;68.90;;;;;;;-0.53;100.00;101562.69;10481515;28;20531;-83
2023/12/07 06:23:21;;;;;;;183.57;70.88;;;;;;;-0.46;100.00;101562.56;10481389;28;20231;-83
2023/12/07 06:28:22;;;;;;;166.57;68.13;;;;;;;-0.44;100.00;101563.63;10483107;28;20068;-82
2023/12/07 06:33:22;;;;;;;173.70;70.23;;;;;;;-0.41;100.00;101563.94;10479623;28;20143;-82
2023/12/07 06:38:23;;;;;;;201.33;75.50;;;;;;;-0.39;100.00;101559.88;10463334;28;20120;-82
2023/12/07 06:43:23;;;;;;;207.80;76.77;;;;;;;-0.40;100.00;101563.19;10479653;28;20494;-82
2023/12/07 06:48:24;;;;;;;156.07;66.07;;;;;;;-0.33;100.00;101575.94;10479642;28;20035;-81
2023/12/07 06:53:24;;;;;;;189.57;81.70;;;;;;;-0.27;100.00;101561.88;10483164;28;20039;-81
2023/12/07 06:58:25;;;;;;;179.43;73.03;;;;;;;-0.29;100.00;101556.59;10479631;28;20135;-82
2023/12/07 07:03:27;;;;;;;217.97;92.20;;;;;;;-0.28;100.00;101560.06;10481259;28;20040;-82
2023/12/07 07:08:28;;;;;;;221.02;89.43;;;;;;;-0.24;100.00;101545.09;10481782;28;20135;-82
2023/12/07 07:13:29;;;;;;;193.48;84.15;;;;;;;-0.16;100.00;101543.28;10480308;28;20036;-83
2023/12/07 07:18:29;;;;;;;211.13;86.60;;;;;;;-0.17;100.00;101550.13;10479057;28;20052;-82
2023/12/07 07:23:30;;;;;;;238.37;90.13;;;;;;;-0.07;100.00;101558.78;10480154;28;20048;-82
2023/12/07 07:28:31;;;;;;;222.52;94.05;;;;;;;-0.08;100.00;101562.09;10479509;28;20139;-82
2023/12/07 07:33:32;;;;;;;210.88;88.55;;;;;;;-0.10;100.00;101559.34;10480185;28;20045;-82
2023/12/07 07:38:32;;;;;;;214.95;92.75;;;;;;;-0.07;100.00;101562.25;10486057;28;20446;-82
2023/12/07 07:43:34;;;;;;;146.10;58.00;;;;;;;-0.04;100.00;101566.81;10470635;28;20131;-83
2023/12/07 07:48:34;;;;;;;217.32;87.90;;;;;;;0.02;100.00;101551.06;10488893;28;20131;-83
2023/12/07 07:53:35;;;;;;;217.38;86.60;;;;;;;0.05;100.00;101556.50;10485977;28;20035;-83
2023/12/07 07:58:36;;;;;;;209.43;89.03;;;;;;;0.03;100.00;101555.44;10485330;28;20127;-82
2023/12/07 08:03:37;;;;;;;162.85;67.70;;;;;;;-0.02;100.00;101562.72;10487695;28;20430;-83
2023/12/07 08:08:37;;;;;;;143.48;64.18;;;;;;;-0.01;100.00;101569.69;10468656;28;20040;-83
2023/12/07 08:13:40;;;;;;;185.95;82.97;;;;;;;0.07;100.00;101566.22;10469190;28;20405;-85
2023/12/07 08:18:40;;;;;;;186.43;81.85;;;;;;;0.21;100.00;101561.56;10467767;28;20051;-84
2023/12/07 08:23:42;;;;;;;172.75;70.55;;;;;;;0.48;100.00;101553.09;10486207;28;20387;-84
2023/12/07 08:28:42;;;;;;;189.33;84.03;;;;;;;0.49;100.00;101564.31;10469865;28;20040;-85
2023/12/07 08:33:43;;;;;;;186.07;82.53;;;;;;;0.41;100.00;101560.97;10451212;28;20391;-85
2023/12/07 08:38:43;;;;;;;184.52;78.05;;;;;;;0.33;100.00;101562.78;10492862;28;20060;-86
2023/12/07 08:43:44;;;;;;;173.15;74.15;;;;;;;0.32;100.00;101562.63;10481712;28;20383;-85
2023/12/07 08:48:44;;;;;;;150.90;71.78;;;;;;;0.29;100.00;101571.84;10476566;28;20040;-87
2023/12/07 08:53:52;;;;;;;147.95;65.68;;;;;;;0.47;100.00;101560.69;10467909;28;20040;-88
2023/12/07 08:58:53;;;;;;;155.95;69.15;;;;;;;0.68;100.00;101565.38;10492722;28;20394;-89
2023/12/07 09:03:53;;;;;;;146.38;66.40;;;;;;;0.73;100.00;101556.44;10526368;28;20043;-92
2023/12/07 09:08:55;;;;;;;138.35;63.63;;;;;;;0.77;100.00;101555.03;10491479;28;20112;-90
2023/12/07 09:13:55;;;;;;;167.50;76.63;;;;;;;1.03;100.00;101559.25;10459924;28;20048;-85
2023/12/07 09:18:56;;;;;;;172.45;74.28;;;;;;;1.13;100.00;101555.91;10511583;28;20127;-91
2023/12/07 09:23:56;;;;;;;195.98;89.03;;;;;;;1.08;100.00;101554.56;10470874;28;20041;-83
2023/12/07 09:28:57;;;;;;;188.07;82.55;;;;;;;0.79;100.00;101556.09;10406198;28;20140;-85
2023/12/07 09:33:57;;;;;;;155.98;74.68;;;;;;;0.69;100.00;101558.53;10439520;28;20099;-83
2023/12/07 09:38:57;;;;;;;144.85;72.45;;;;;;;0.69;100.00;101553.38;10413516;28;20166;-83
2023/12/07 09:44:00;;;;;;;137.65;70.78;;;;;;;0.79;100.00;101550.06;10442047;28;21550;-84
2023/12/07 09:49:00;;;;;;;144.55;72.38;;;;;;;0.88;100.00;101530.34;10469907;28;20041;-85
2023/12/07 09:54:01;;;;;;;149.43;68.63;;;;;;;1.00;100.00;101526.38;10502211;28;20046;-86
2023/12/07 09:59:01;;;;;;;121.28;61.35;;;;;;;1.13;100.00;101524.97;10476737;28;20131;-86
2023/12/07 10:04:18;;;;;;;138.70;71.88;;;;;;;1.39;100.00;101509.38;10500262;28;20484;-91
2023/12/07 10:09:21;;;;;;;135.63;67.57;;;;;;;1.58;100.00;101498.22;10490004;28;20051;-85
2023/12/07 10:14:22;;;;;;;141.05;71.72;;;;;;;1.73;100.00;101504.81;10458080;28;20504;-83
2023/12/07 10:19:22;;;;;;;165.05;76.57;;;;;;;1.34;100.00;101489.09;10421381;28;20065;-84
2023/12/07 10:24:24;;;;;;;201.32;98.45;;;;;;;1.04;100.00;101472.53;10422656;28;20434;-85
2023/12/07 10:29:25;;;;;;;;;;;;;;;0.75;100.00;101465.47;10416996;28;20099;-87
2023/12/07 10:34:26;;;;;;;130.10;65.95;;;;;;;0.70;100.00;101462.44;10462700;28;19921;-91
2023/12/07 10:39:27;;;;;;;108.53;57.25;;;;;;;0.89;100.00;101449.69;10435478;28;20069;-89
2023/12/07 10:44:27;;;;;;;91.45;48.53;;;;;;;1.06;100.00;101440.97;10415975;28;20192;-86
2023/12/07 10:49:28;;;;;;;74.82;45.00;;;;;;;1.66;100.00;101429.28;10412948;28;20040;-86
2023/12/07 10:55:22;;;;;;;75.55;36.38;;;;;;;2.02;100.00;101429.16;10420822;28;20123;-86
2023/12/07 11:00:29;;;;;;;51.13;31.10;;;;;;;1.75;100.00;101420.69;10399158;28;20056;-86
2023/12/07 11:05:30;;;;;;;43.67;29.70;;;;;;;1.86;100.00;101419.13;10434372;28;20098;-86
2023/12/07 11:10:40;;;;;;;47.40;26.88;;;;;;;1.93;100.00;101419.69;10463146;28;20036;-87
2023/12/07 11:15:41;;;;;;;45.95;28.70;;;;;;;2.04;100.00;101408.66;10486444;28;20115;-88
2023/12/07 11:20:48;;;;;;;42.67;26.05;;;;;;;2.23;100.00;101398.28;10489383;28;20044;-94
2023/12/07 11:25:50;;;;;;;42.13;24.23;;;;;;;2.28;100.00;101378.06;10476415;28;20044;-91
2023/12/07 11:30:53;;;;;;;;;;;;;;;2.33;100.00;101372.50;10497147;28;20060;-85
2023/12/07 11:36:00;;;;;;;33.58;21.13;;;;;;;2.53;100.00;101360.44;10501850;28;20215;-89
2023/12/07 11:41:01;;;;;;;37.13;23.05;;;;;;;2.52;100.00;101356.06;10439252;28;20053;-91
2023/12/07 11:46:02;;;;;;;32.00;19.63;;;;;;;2.60;100.00;101351.56;10468360;28;20032;-84
2023/12/07 11:51:10;;;;;;;35.83;19.42;;;;;;;2.37;100.00;101332.38;10497572;28;20043;-83
2023/12/07 11:56:12;;;;;;;32.00;21.02;;;;;;;2.29;100.00;101311.00;10461731;28;20044;-84
2023/12/07 12:01:12;;;;;;;;;;;;;;;2.15;100.00;101290.81;10476745;28;20049;-86
2023/12/07 12:06:13;;;;;;;31.15;20.00;;;;;;;2.32;100.00;101277.69;10448401;28;19925;-87
2023/12/07 12:11:13;;;;;;;33.15;17.98;;;;;;;2.59;100.00;101261.88;10458990;28;20557;-84
2023/12/07 12:16:14;;;;;;;32.10;19.83;;;;;;;2.41;100.00;101232.78;10451777;28;20047;-85
2023/12/07 12:21:15;;;;;;;37.42;20.98;;;;;;;2.51;100.00;101221.56;10451104;28;20057;-86
2023/12/07 12:26:16;;;;;;;38.10;22.30;;;;;;;2.49;100.00;101204.25;10434998;28;20583;-85
2023/12/07 12:31:17;;;;;;;28.27;19.13;;;;;;;2.44;100.00;101196.88;10437703;28;20051;-85
2023/12/07 12:36:18;;;;;;;36.10;23.10;;;;;;;2.46;100.00;101187.56;10437769;28;20418;-87
2023/12/07 12:41:19;;;;;;;27.67;18.57;;;;;;;2.42;100.00;101183.84;10427890;28;20400;-87
2023/12/07 12:46:20;;;;;;;28.93;15.73;;;;;;;2.44;100.00;101179.69;10520433;27;20134;-87
2023/12/07 12:51:21;;;;;;;23.70;15.15;;;;;;;2.64;100.00;101167.56;10468517;28;20052;-86
2023/12/07 12:56:22;;;;;;;26.58;15.48;;;;;;;2.98;100.00;101139.34;10436017;28;20041;-88
2023/12/07 13:01:22;;;;;;;19.58;11.50;;;;;;;3.10;100.00;101141.16;10434978;28;20605;-85
2023/12/07 13:06:24;;;;;;;18.27;13.32;;;;;;;3.05;100.00;101141.66;10438747;28;20097;-89
2023/12/07 13:11:25;;;;;;;24.50;11.20;;;;;;;2.88;100.00;101127.34;10424356;28;20059;-87
2023/12/07 13:16:26;;;;;;;21.92;12.75;;;;;;;2.74;100.00;101120.13;10435256;28;20037;-90
2023/12/07 13:21:27;;;;;;;18.38;13.65;;;;;;;2.54;100.00;101116.78;10433242;28;20116;-84
2023/12/07 13:26:27;;;;;;;25.15;12.05;;;;;;;2.39;100.00;101120.66;10441565;28;20048;-84
2023/12/07 13:31:28;;;;;;;22.33;12.90;;;;;;;2.19;100.00;101123.38;10444023;28;20460;-85
2023/12/07 13:36:30;;;;;;;27.15;13.52;;;;;;;2.23;100.00;101110.72;10451085;28;20128;-90
2023/12/07 13:41:30;;;;;;;;;;;;;;;2.21;100.00;101100.22;10428396;28;20043;-87
2023/12/07 13:46:32;;;;;;;18.42;11.40;;;;;;;2.09;100.00;101106.94;10442531;28;19999;-86
2023/12/07 13:51:33;;;;;;;19.60;13.05;;;;;;;1.88;100.00;101092.34;10421079;28;20041;-93
2023/12/07 13:56:35;;;;;;;19.25;11.93;;;;;;;1.73;100.00;101091.00;10409319;28;20129;-88
2023/12/07 14:01:35;;;;;;;23.77;11.27;;;;;;;1.63;100.00;101083.25;10438230;28;20048;-82
2023/12/07 14:06:37;;;;;;;18.13;11.55;;;;;;;1.49;100.00;101066.53;10447824;28;20446;-85
2023/12/07 14:11:39;;;;;;;21.00;13.10;;;;;;;1.40;100.00;101069.22;10443374;28;20036;-90
2023/12/07 14:16:39;;;;;;;19.88;12.48;;;;;;;1.29;100.00;101061.47;10481732;28;20044;-85
2023/12/07 14:21:40;;;;;;;21.88;13.30;;;;;;;1.29;100.00;101051.16;10500618;28;20048;-89
2023/12/07 14:26:44;;;;;;;20.92;13.30;;;;;;;1.25;100.00;101048.16;10497096;28;20036;-87
2023/12/07 14:31:45;;;;;;;23.77;12.55;;;;;;;1.15;100.00;101029.28;10492475;28;20045;-88
2023/12/07 14:36:46;;;;;;;17.60;11.33;;;;;;;1.05;100.00;101010.31;10498050;28;20040;-88
2023/12/07 14:41:47;;;;;;;21.75;12.88;;;;;;;0.94;100.00;101006.78;10502686;28;20052;-87
2023/12/07 14:46:47;;;;;;;17.35;11.88;;;;;;;0.80;100.00;100988.41;10506705;28;20064;-89
2023/12/07 14:51:48;;;;;;;18.70;12.13;;;;;;;0.75;100.00;100986.22;10504791;28;20454;-88
2023/12/07 14:56:49;;;;;;;23.42;10.77;;;;;;;0.67;100.00;100993.25;10498019;28;20055;-84
2023/12/07 15:01:50;;;;;;;20.58;11.02;;;;;;;0.57;100.00;100996.69;10478739;28;20051;-82
2023/12/07 15:06:50;;;;;;;17.10;11.95;;;;;;;0.52;100.00;101005.66;10503247;28;20147;-84
2023/12/07 15:11:51;;;;;;;17.83;10.23;;;;;;;0.43;100.00;101001.50;10517558;28;20592;-83
2023/12/07 15:16:54;;;;;;;20.17;12.13;;;;;;;0.34;100.00;101007.47;10497074;28;20106;-88
2023/12/07 15:21:54;;;;;;;15.05;9.88;;;;;;;0.22;100.00;100990.13;10507340;28;20040;-91
2023/12/07 15:26:54;;;;;;;18.40;11.95;;;;;;;0.12;100.00;100996.13;10513191;28;20119;-91
2023/12/07 15:31:55;;;;;;;18.98;11.57;;;;;;;0.02;100.00;100996.06;10488839;28;20123;-88
2023/12/07 15:36:55;;;;;;;19.45;11.07;;;;;;;0.01;100.00;100990.75;10513252;28;20135;-88
2023/12/07 15:41:56;;;;;;;18.15;10.82;;;;;;;-0.06;100.00;100987.63;10507339;28;20040;-86
2023/12/07 15:46:57;;;;;;;19.47;10.77;;;;;;;-0.17;100.00;100972.84;10522782;28;20043;-83
2023/12/07 15:51:57;;;;;;;20.47;13.37;;;;;;;-0.22;100.00;100968.97;10484957;28;20043;-84
2023/12/07 15:56:58;;;;;;;20.92;13.73;;;;;;;-0.26;100.00;100960.06;10514184;28;20462;-83
2023/12/07 16:01:58;;;;;;;27.70;15.07;;;;;;;-0.28;100.00;100953.88;10502573;28;20048;-84
2023/12/07 16:06:59;;;;;;;24.40;13.47;;;;;;;-0.35;100.00;100954.06;10489813;28;20455;-84
2023/12/07 16:12:00;;;;;;;23.15;13.73;;;;;;;-0.41;100.00;100949.25;10505693;28;20035;-85
2023/12/07 16:17:01;;;;;;;24.37;15.03;;;;;;;-0.37;100.00;100941.06;10438631;28;20044;-84
2023/12/07 16:22:01;;;;;;;22.45;13.65;;;;;;;-0.45;100.00;100936.88;10424010;28;20127;-83
2023/12/07 16:27:02;;;;;;;21.80;14.37;;;;;;;-0.48;100.00;100934.94;10445334;28;20116;-82
2023/12/07 16:32:03;;;;;;;25.02;14.15;;;;;;;-0.47;100.00;100922.97;10446646;28;20133;-83
2023/12/07 16:37:04;;;;;;;27.17;15.87;;;;;;;-0.40;100.00;100924.44;10464448;28;20484;-87
2023/12/07 16:42:05;;;;;;;26.17;13.80;;;;;;;-0.39;100.00;100908.25;10440085;28;20041;-82
2023/12/07 16:47:06;;;;;;;24.47;13.37;;;;;;;-0.28;100.00;100902.44;10442090;28;20081;-85
2023/12/07 16:52:07;;;;;;;23.13;13.70;;;;;;;-0.30;100.00;100894.56;10423532;28;20044;-85
2023/12/07 16:57:07;;;;;;;16.35;10.27;;;;;;;-0.12;100.00;100888.41;10445133;28;20032;-83
2023/12/07 17:02:08;;;;;;;28.85;15.52;;;;;;;-0.11;100.00;100878.22;10443964;28;20123;-84
2023/12/07 17:07:10;;;;;;;23.00;14.45;;;;;;;-0.03;100.00;100866.94;10465168;28;20044;-83
2023/12/07 17:12:10;;;;;;;20.23;14.07;;;;;;;0.10;100.00;100855.19;10506201;28;20558;-84
2023/12/07 17:17:11;;;;;;;22.90;10.55;;;;;;;0.15;100.00;100848.78;10508113;28;20109;-85
2023/12/07 17:22:11;;;;;;;21.60;12.30;;;;;;;0.11;100.00;100844.13;10459980;28;20040;-83
2023/12/07 17:27:12;;;;;;;16.75;9.77;;;;;;;0.22;100.00;100843.41;10457943;28;20089;-85
2023/12/07 17:32:13;;;;;;;15.60;9.52;;;;;;;0.24;100.00;100834.16;10477027;28;20056;-85
2023/12/07 17:37:13;;;;;;;17.40;11.13;;;;;;;0.27;100.00;100831.84;10478805;28;20048;-85
2023/12/07 17:42:14;;;;;;;26.30;10.30;;;;;;;0.28;100.00;100825.94;10464998;28;20527;-85
2023/12/07 17:47:14;;;;;;;19.85;9.82;;;;;;;0.23;100.00;100810.84;10475542;28;20167;-84
2023/12/07 17:52:15;;;;;;;14.85;9.80;;;;;;;0.08;100.00;100812.97;10487370;28;20071;-84
2023/12/07 17:57:15;;;;;;;22.48;10.25;;;;;;;-0.04;100.00;100813.69;10461108;28;20047;-84
2023/12/07 18:02:16;;;;;;;15.55;9.85;;;;;;;-0.14;100.00;100811.06;10434536;28;20056;-84
2023/12/07 18:07:16;;;;;;;16.15;10.27;;;;;;;-0.15;100.00;100822.09;10440308;28;20131;-84
2023/12/07 18:12:17;;;;;;;21.13;13.03;;;;;;;-0.18;100.00;100821.84;10437292;28;20037;-84
2023/12/07 18:17:20;;;;;;;15.83;10.77;;;;;;;-0.22;100.00;100827.47;10448852;28;20186;-87
2023/12/07 18:22:21;;;;;;;18.30;10.30;;;;;;;-0.22;100.00;100827.47;10465871;28;20119;-85
2023/12/07 18:27:21;;;;;;;20.05;11.52;;;;;;;-0.19;100.00;100830.31;10504484;28;20045;-83
2023/12/07 18:32:22;;;;;;;18.88;11.68;;;;;;;-0.16;100.00;100835.75;10488693;28;20475;-83
2023/12/07 18:37:22;;;;;;;17.10;10.55;;;;;;;-0.07;100.00;100839.13;10497998;28;20123;-87
2023/12/07 18:42:23;;;;;;;17.52;10.68;;;;;;;-0.03;100.00;100823.22;10506091;28;20040;-87
2023/12/07 18:47:23;;;;;;;11.25;7.13;;;;;;;0.01;100.00;100823.47;10501004;28;20486;-85
2023/12/07 18:52:25;;;;;;;16.63;10.02;;;;;;;0.07;100.00;100813.72;10472811;28;20043;-84
2023/12/07 18:57:26;;;;;;;15.85;10.45;;;;;;;0.06;100.00;100806.78;10500419;28;20041;-86
2023/12/07 19:02:26;;;;;;;16.50;10.70;;;;;;;0.07;100.00;100785.41;10488105;28;20064;-85
2023/12/07 19:07:27;;;;;;;14.98;9.68;;;;;;;0.10;100.00;100775.41;10492897;28;20383;-85
2023/12/07 19:12:28;;;;;;;19.05;9.55;;;;;;;0.11;100.00;100764.34;10498775;28;20131;-86
2023/12/07 19:17:29;;;;;;;12.87;8.53;;;;;;;0.18;100.00;100763.22;10500196;28;20048;-86
2023/12/07 19:22:29;;;;;;;15.13;9.02;;;;;;;0.02;100.00;100756.72;10507488;28;20639;-85
2023/12/07 19:27:30;;;;;;;15.95;9.32;;;;;;;0.07;100.00;100769.97;10508920;28;20140;-82
2023/12/07 19:32:30;;;;;;;17.80;9.97;;;;;;;0.05;100.00;100754.41;10511754;28;20064;-84
2023/12/07 19:37:31;;;;;;;14.35;10.32;;;;;;;-0.01;100.00;100728.16;10487667;28;20127;-84
2023/12/07 19:42:31;;;;;;;15.50;10.93;;;;;;;-0.17;100.00;100720.72;10499996;28;20032;-83
2023/12/07 19:47:32;;;;;;;17.10;10.70;;;;;;;-0.14;100.00;100702.13;10508950;28;20159;-83
2023/12/07 19:52:35;;;;;;;16.45;9.93;;;;;;;-0.19;100.00;100693.97;10510581;28;20130;-84
2023/12/07 19:57:42;;;;;;;15.38;9.93;;;;;;;-0.20;100.00;100680.22;10509314;28;20488;-84
2023/12/07 20:02:42;;;;;;;12.93;9.38;;;;;;;-0.13;100.00;100675.63;10501165;28;20623;-83
2023/12/07 20:07:43;;;;;;;12.48;7.28;;;;;;;-0.05;100.00;100666.91;10505757;28;20119;-83
2023/12/07 20:12:43;;;;;;;17.33;9.60;;;;;;;0.03;100.00;100650.44;10465875;28;20032;-83
2023/12/07 20:17:44;;;;;;;15.75;9.30;;;;;;;0.00;100.00;100650.19;10499305;28;20064;-81
2023/12/07 20:22:44;;;;;;;10.73;6.97;;;;;;;0.02;100.00;100642.56;10502997;28;20150;-83
2023/12/07 20:27:45;;;;;;;14.13;9.83;;;;;;;-0.03;100.00;100630.22;10504537;28;20499;-84
2023/12/07 20:32:45;;;;;;;14.20;9.70;;;;;;;-0.02;100.00;100607.97;10494017;28;20124;-84
2023/12/07 20:37:46;;;;;;;16.38;10.95;;;;;;;0.01;100.00;100595.38;10472372;28;20432;-86
2023/12/07 20:42:46;;;;;;;15.05;10.00;;;;;;;-0.03;100.00;100576.19;10487598;28;20039;-85
2023/12/07 20:47:47;;;;;;;18.25;11.52;;;;;;;-0.06;100.00;100567.31;10497593;28;20050;-84
2023/12/07 20:52:47;;;;;;;15.57;9.60;;;;;;;-0.01;100.00;100536.03;10464535;28;20086;-84
2023/12/07 20:57:48;;;;;;;19.33;10.20;;;;;;;0.06;100.00;100521.13;10443250;28;20129;-89
2023/12/07 21:02:49;;;;;;;15.93;10.47;;;;;;;0.08;100.00;100504.13;10432786;28;20064;-84
2023/12/07 21:07:50;;;;;;;14.48;9.90;;;;;;;0.14;100.00;100496.94;10456598;28;20361;-84
2023/12/07 21:12:56;;;;;;;14.00;6.82;;;;;;;0.20;100.00;100514.56;10427535;28;20116;-83
2023/12/07 21:17:56;;;;;;;16.92;10.70;;;;;;;0.17;100.00;100512.63;10454052;28;20045;-82
2023/12/07 21:22:57;;;;;;;12.57;9.43;;;;;;;0.25;100.00;100497.84;10451489;28;20036;-85
2023/12/07 21:27:57;;;;;;;20.02;13.05;;;;;;;0.24;100.00;100470.28;10480876;28;20487;-84
2023/12/07 21:32:58;;;;;;;18.73;11.43;;;;;;;0.25;100.00;100479.81;10479540;28;20159;-85
2023/12/07 21:37:58;;;;;;;20.35;12.35;;;;;;;0.28;100.00;100467.19;10463401;28;20068;-83
2023/12/07 21:43:00;;;;;;;17.92;10.95;;;;;;;0.33;100.00;100441.81;10467096;28;20606;-86
2023/12/07 21:48:00;;;;;;;19.80;11.57;;;;;;;0.40;100.00;100442.47;10438516;28;20056;-85
2023/12/07 21:53:01;;;;;;;22.90;13.65;;;;;;;0.46;100.00;100420.56;10444944;28;20510;-82
2023/12/07 21:58:01;;;;;;;17.63;11.23;;;;;;;0.44;100.00;100404.97;10442346;28;20090;-84
2023/12/07 22:03:03;;;;;;;20.73;11.55;;;;;;;0.43;100.00;100391.22;10461513;28;20133;-84
2023/12/07 22:08:03;;;;;;;;;;;;;;;0.51;100.00;100390.91;10472156;28;20400;-81
2023/12/07 22:13:04;;;;;;;19.40;11.82;;;;;;;0.55;100.00;100393.84;10440848;28;19935;-83
2023/12/07 22:18:05;;;;;;;15.43;11.05;;;;;;;0.61;100.00;100384.81;10480391;28;20078;-83
2023/12/07 22:23:05;;;;;;;18.15;11.15;;;;;;;0.63;100.00;100380.69;10472929;28;20468;-85